sensor_id;sensor_type;location;lat;lon;timestamp;temperature;humidity
17331;DHT22;8783;52.448;4.638;2024-02-14T00:01:34;8.20;99.90
17331;DHT22;8783;52.448;4.638;2024-02-14T00:04:02;8.20;99.90
17331;DHT22;8783;52.448;4.638;2024-02-14T00:06:28;8.20;99.90
17331;DHT22;8783;52.448;4.638;2024-02-14T00:08:54;8.30;99.90
17331;DHT22;8783;52.448;4.638;2024-02-14T00:11:19;8.20;99.90
17331;DHT22;8783;52.448;4.638;2024-02-14T00:13:45;8.30;99.90
17331;DHT22;8783;52.448;4.638;2024-02-14T00:16:10;8.20;99.90
17331;DHT22;8783;52.448;4.638;2024-02-14T00:18:36;8.30;99.90
17331;DHT22;8783;52.448;4.638;2024-02-14T00:21:02;8.30;99.90
17331;DHT22;8783;52.448;4.638;2024-02-14T00:23:27;8.30;99.90
17331;DHT22;8783;52.448;4.638;2024-02-14T00:25:53;8.30;99.90
17331;DHT22;8783;52.448;4.638;2024-02-14T00:28:19;8.30;99.90
17331;DHT22;8783;52.448;4.638;2024-02-14T00:30:44;8.30;99.90
17331;DHT22;8783;52.448;4.638;2024-02-14T00:33:10;8.40;99.90
17331;DHT22;8783;52.448;4.638;2024-02-14T00:35:36;8.40;99.90
17331;DHT22;8783;52.448;4.638;2024-02-14T00:38:02;8.30;99.90
17331;DHT22;8783;52.448;4.638;2024-02-14T00:40:27;8.40;99.90
17331;DHT22;8783;52.448;4.638;2024-02-14T00:42:53;8.40;99.90
17331;DHT22;8783;52.448;4.638;2024-02-14T00:45:19;8.40;99.90
17331;DHT22;8783;52.448;4.638;2024-02-14T00:47:44;8.40;99.90
17331;DHT22;8783;52.448;4.638;2024-02-14T00:50:10;8.40;99.90
17331;DHT22;8783;52.448;4.638;2024-02-14T00:52:35;8.50;99.90
17331;DHT22;8783;52.448;4.638;2024-02-14T00:55:01;8.50;99.90
17331;DHT22;8783;52.448;4.638;2024-02-14T00:57:30;8.50;99.90
17331;DHT22;8783;52.448;4.638;2024-02-14T00:59:56;8.50;99.90
17331;DHT22;8783;52.448;4.638;2024-02-14T01:02:25;8.50;99.90
17331;DHT22;8783;52.448;4.638;2024-02-14T01:04:51;8.60;99.90
17331;DHT22;8783;52.448;4.638;2024-02-14T01:07:17;8.60;99.90
17331;DHT22;8783;52.448;4.638;2024-02-14T01:09:43;8.60;99.90
17331;DHT22;8783;52.448;4.638;2024-02-14T01:12:08;8.60;99.90
17331;DHT22;8783;52.448;4.638;2024-02-14T01:14:34;8.60;99.90
17331;DHT22;8783;52.448;4.638;2024-02-14T01:17:00;8.60;99.90
17331;DHT22;8783;52.448;4.638;2024-02-14T01:19:25;8.60;99.90
17331;DHT22;8783;52.448;4.638;2024-02-14T01:21:54;8.70;99.90
17331;DHT22;8783;52.448;4.638;2024-02-14T01:24:19;8.70;99.90
17331;DHT22;8783;52.448;4.638;2024-02-14T01:26:45;8.70;99.90
17331;DHT22;8783;52.448;4.638;2024-02-14T01:29:10;8.70;99.90
17331;DHT22;8783;52.448;4.638;2024-02-14T01:31:36;8.70;99.90
17331;DHT22;8783;52.448;4.638;2024-02-14T01:34:02;8.70;99.90
17331;DHT22;8783;52.448;4.638;2024-02-14T01:36:31;8.70;99.90
17331;DHT22;8783;52.448;4.638;2024-02-14T01:38:56;8.70;99.90
17331;DHT22;8783;52.448;4.638;2024-02-14T01:41:22;8.70;99.90
17331;DHT22;8783;52.448;4.638;2024-02-14T01:43:48;8.70;99.90
17331;DHT22;8783;52.448;4.638;2024-02-14T01:46:13;8.80;99.90
17331;DHT22;8783;52.448;4.638;2024-02-14T01:48:40;8.70;99.90
17331;DHT22;8783;52.448;4.638;2024-02-14T01:51:08;8.80;99.90
17331;DHT22;8783;52.448;4.638;2024-02-14T01:53:34;8.80;99.90
17331;DHT22;8783;52.448;4.638;2024-02-14T01:56:01;8.80;99.90
17331;DHT22;8783;52.448;4.638;2024-02-14T01:58:29;8.80;99.90
17331;DHT22;8783;52.448;4.638;2024-02-14T02:00:55;8.80;99.90
17331;DHT22;8783;52.448;4.638;2024-02-14T02:03:25;8.80;99.90
17331;DHT22;8783;52.448;4.638;2024-02-14T02:05:55;8.80;99.90
17331;DHT22;8783;52.448;4.638;2024-02-14T02:08:21;8.80;99.90
17331;DHT22;8783;52.448;4.638;2024-02-14T02:10:47;8.80;99.90
17331;DHT22;8783;52.448;4.638;2024-02-14T02:13:13;8.80;99.90
17331;DHT22;8783;52.448;4.638;2024-02-14T02:15:41;8.90;99.90
17331;DHT22;8783;52.448;4.638;2024-02-14T02:18:10;8.90;99.90
17331;DHT22;8783;52.448;4.638;2024-02-14T02:20:36;8.90;99.90
17331;DHT22;8783;52.448;4.638;2024-02-14T02:23:01;8.90;99.90
17331;DHT22;8783;52.448;4.638;2024-02-14T02:25:28;8.90;99.90
17331;DHT22;8783;52.448;4.638;2024-02-14T02:27:53;8.90;99.90
17331;DHT22;8783;52.448;4.638;2024-02-14T02:30:22;8.90;99.90
17331;DHT22;8783;52.448;4.638;2024-02-14T02:32:47;8.90;99.90
17331;DHT22;8783;52.448;4.638;2024-02-14T02:35:13;8.90;99.90
17331;DHT22;8783;52.448;4.638;2024-02-14T02:37:39;8.90;99.90
17331;DHT22;8783;52.448;4.638;2024-02-14T02:40:05;8.90;99.90
17331;DHT22;8783;52.448;4.638;2024-02-14T02:42:31;8.90;99.90
17331;DHT22;8783;52.448;4.638;2024-02-14T02:44:56;8.90;99.90
17331;DHT22;8783;52.448;4.638;2024-02-14T02:47:22;8.90;99.90
17331;DHT22;8783;52.448;4.638;2024-02-14T02:49:47;8.90;99.90
17331;DHT22;8783;52.448;4.638;2024-02-14T02:52:13;8.90;99.90
17331;DHT22;8783;52.448;4.638;2024-02-14T02:54:39;8.90;99.90
17331;DHT22;8783;52.448;4.638;2024-02-14T02:57:10;8.90;99.90
17331;DHT22;8783;52.448;4.638;2024-02-14T02:59:35;8.90;99.90
17331;DHT22;8783;52.448;4.638;2024-02-14T03:02:02;8.90;99.90
17331;DHT22;8783;52.448;4.638;2024-02-14T03:04:28;8.90;99.90
17331;DHT22;8783;52.448;4.638;2024-02-14T03:06:54;8.90;99.90
17331;DHT22;8783;52.448;4.638;2024-02-14T03:09:20;8.90;99.90
17331;DHT22;8783;52.448;4.638;2024-02-14T03:11:47;8.90;99.90
17331;DHT22;8783;52.448;4.638;2024-02-14T03:14:13;8.90;99.90
17331;DHT22;8783;52.448;4.638;2024-02-14T03:16:39;8.90;99.90
17331;DHT22;8783;52.448;4.638;2024-02-14T03:19:05;8.90;99.90
17331;DHT22;8783;52.448;4.638;2024-02-14T03:21:31;8.90;99.90
17331;DHT22;8783;52.448;4.638;2024-02-14T03:24:01;8.90;99.90
17331;DHT22;8783;52.448;4.638;2024-02-14T03:26:28;8.90;99.90
17331;DHT22;8783;52.448;4.638;2024-02-14T03:28:54;8.90;99.90
17331;DHT22;8783;52.448;4.638;2024-02-14T03:31:20;8.90;99.90
17331;DHT22;8783;52.448;4.638;2024-02-14T03:33:45;8.90;99.90
17331;DHT22;8783;52.448;4.638;2024-02-14T03:36:11;8.90;99.90
17331;DHT22;8783;52.448;4.638;2024-02-14T03:38:37;8.90;99.90
17331;DHT22;8783;52.448;4.638;2024-02-14T03:41:05;8.90;99.90
17331;DHT22;8783;52.448;4.638;2024-02-14T03:43:30;8.90;99.90
17331;DHT22;8783;52.448;4.638;2024-02-14T03:45:57;8.90;99.90
17331;DHT22;8783;52.448;4.638;2024-02-14T03:48:23;8.90;99.90
17331;DHT22;8783;52.448;4.638;2024-02-14T03:50:48;8.90;99.90
17331;DHT22;8783;52.448;4.638;2024-02-14T03:53:14;8.90;99.90
17331;DHT22;8783;52.448;4.638;2024-02-14T03:55:40;9.00;99.90
17331;DHT22;8783;52.448;4.638;2024-02-14T03:58:06;9.00;99.90
17331;DHT22;8783;52.448;4.638;2024-02-14T04:00:34;9.00;99.90
17331;DHT22;8783;52.448;4.638;2024-02-14T04:03:01;9.00;99.90
17331;DHT22;8783;52.448;4.638;2024-02-14T04:05:28;9.00;99.90
17331;DHT22;8783;52.448;4.638;2024-02-14T04:07:54;9.00;99.90
17331;DHT22;8783;52.448;4.638;2024-02-14T04:10:20;9.00;99.90
17331;DHT22;8783;52.448;4.638;2024-02-14T04:12:46;9.00;99.90
17331;DHT22;8783;52.448;4.638;2024-02-14T04:15:12;9.00;99.90
17331;DHT22;8783;52.448;4.638;2024-02-14T04:17:38;9.00;99.90
17331;DHT22;8783;52.448;4.638;2024-02-14T04:20:04;9.00;99.90
17331;DHT22;8783;52.448;4.638;2024-02-14T04:22:30;9.00;99.90
17331;DHT22;8783;52.448;4.638;2024-02-14T04:24:56;9.00;99.90
17331;DHT22;8783;52.448;4.638;2024-02-14T04:27:22;9.00;99.90
17331;DHT22;8783;52.448;4.638;2024-02-14T04:29:48;9.00;99.90
17331;DHT22;8783;52.448;4.638;2024-02-14T04:32:14;9.00;99.90
17331;DHT22;8783;52.448;4.638;2024-02-14T04:34:40;9.00;99.90
17331;DHT22;8783;52.448;4.638;2024-02-14T04:37:07;9.00;99.90
17331;DHT22;8783;52.448;4.638;2024-02-14T04:39:38;9.00;99.90
17331;DHT22;8783;52.448;4.638;2024-02-14T04:42:04;9.10;99.90
17331;DHT22;8783;52.448;4.638;2024-02-14T04:44:31;9.10;99.90
17331;DHT22;8783;52.448;4.638;2024-02-14T04:46:57;9.10;99.90
17331;DHT22;8783;52.448;4.638;2024-02-14T04:49:26;9.00;99.90
17331;DHT22;8783;52.448;4.638;2024-02-14T04:51:52;9.10;99.90
17331;DHT22;8783;52.448;4.638;2024-02-14T04:54:18;9.10;99.90
17331;DHT22;8783;52.448;4.638;2024-02-14T04:56:44;9.10;99.90
17331;DHT22;8783;52.448;4.638;2024-02-14T04:59:11;9.10;99.90
17331;DHT22;8783;52.448;4.638;2024-02-14T05:01:36;9.10;99.90
17331;DHT22;8783;52.448;4.638;2024-02-14T05:04:02;9.10;99.90
17331;DHT22;8783;52.448;4.638;2024-02-14T05:06:28;9.10;99.90
17331;DHT22;8783;52.448;4.638;2024-02-14T05:08:54;9.10;99.90
17331;DHT22;8783;52.448;4.638;2024-02-14T05:11:19;9.10;99.90
17331;DHT22;8783;52.448;4.638;2024-02-14T05:13:45;9.10;99.90
17331;DHT22;8783;52.448;4.638;2024-02-14T05:16:12;9.10;99.90
17331;DHT22;8783;52.448;4.638;2024-02-14T05:18:38;9.10;99.90
17331;DHT22;8783;52.448;4.638;2024-02-14T05:21:07;9.10;99.90
17331;DHT22;8783;52.448;4.638;2024-02-14T05:23:33;9.10;99.90
17331;DHT22;8783;52.448;4.638;2024-02-14T05:26:00;9.20;99.90
17331;DHT22;8783;52.448;4.638;2024-02-14T05:28:30;9.20;99.90
17331;DHT22;8783;52.448;4.638;2024-02-14T05:30:56;9.20;99.90
17331;DHT22;8783;52.448;4.638;2024-02-14T05:33:22;9.20;99.90
17331;DHT22;8783;52.448;4.638;2024-02-14T05:35:48;9.20;99.90
17331;DHT22;8783;52.448;4.638;2024-02-14T05:38:14;9.20;99.90
17331;DHT22;8783;52.448;4.638;2024-02-14T05:40:40;9.20;99.90
17331;DHT22;8783;52.448;4.638;2024-02-14T05:43:10;9.20;99.90
17331;DHT22;8783;52.448;4.638;2024-02-14T05:45:36;9.20;99.90
17331;DHT22;8783;52.448;4.638;2024-02-14T05:48:01;9.20;99.90
17331;DHT22;8783;52.448;4.638;2024-02-14T05:50:28;9.20;99.90
17331;DHT22;8783;52.448;4.638;2024-02-14T05:52:53;9.20;99.90
17331;DHT22;8783;52.448;4.638;2024-02-14T05:55:19;9.20;99.90
17331;DHT22;8783;52.448;4.638;2024-02-14T05:57:44;9.20;99.90
17331;DHT22;8783;52.448;4.638;2024-02-14T06:00:10;9.30;99.90
17331;DHT22;8783;52.448;4.638;2024-02-14T06:02:38;9.30;99.90
17331;DHT22;8783;52.448;4.638;2024-02-14T06:05:06;9.20;99.90
17331;DHT22;8783;52.448;4.638;2024-02-14T06:07:35;9.20;99.90
17331;DHT22;8783;52.448;4.638;2024-02-14T06:10:01;9.30;99.90
17331;DHT22;8783;52.448;4.638;2024-02-14T06:12:26;9.30;99.90
17331;DHT22;8783;52.448;4.638;2024-02-14T06:14:52;9.30;99.90
17331;DHT22;8783;52.448;4.638;2024-02-14T06:17:17;9.30;99.90
17331;DHT22;8783;52.448;4.638;2024-02-14T06:19:43;9.30;99.90
17331;DHT22;8783;52.448;4.638;2024-02-14T06:22:09;9.30;99.90
17331;DHT22;8783;52.448;4.638;2024-02-14T06:24:36;9.30;99.90
17331;DHT22;8783;52.448;4.638;2024-02-14T06:27:01;9.30;99.90
17331;DHT22;8783;52.448;4.638;2024-02-14T06:29:27;9.30;99.90
17331;DHT22;8783;52.448;4.638;2024-02-14T06:31:53;9.30;99.90
17331;DHT22;8783;52.448;4.638;2024-02-14T06:34:19;9.30;99.90
17331;DHT22;8783;52.448;4.638;2024-02-14T06:36:46;9.30;99.90
17331;DHT22;8783;52.448;4.638;2024-02-14T06:39:12;9.40;99.90
17331;DHT22;8783;52.448;4.638;2024-02-14T06:41:38;9.40;99.90
17331;DHT22;8783;52.448;4.638;2024-02-14T06:44:05;9.40;99.90
17331;DHT22;8783;52.448;4.638;2024-02-14T06:46:31;9.40;99.90
17331;DHT22;8783;52.448;4.638;2024-02-14T06:48:56;9.40;99.90
17331;DHT22;8783;52.448;4.638;2024-02-14T06:51:22;9.40;99.90
17331;DHT22;8783;52.448;4.638;2024-02-14T06:53:50;9.40;99.90
17331;DHT22;8783;52.448;4.638;2024-02-14T06:56:19;9.40;99.90
17331;DHT22;8783;52.448;4.638;2024-02-14T06:58:44;9.40;99.90
17331;DHT22;8783;52.448;4.638;2024-02-14T07:01:10;9.40;99.90
17331;DHT22;8783;52.448;4.638;2024-02-14T07:03:38;9.40;99.90
17331;DHT22;8783;52.448;4.638;2024-02-14T07:06:06;9.40;99.90
17331;DHT22;8783;52.448;4.638;2024-02-14T07:08:31;9.40;99.90
17331;DHT22;8783;52.448;4.638;2024-02-14T07:10:57;9.40;99.90
17331;DHT22;8783;52.448;4.638;2024-02-14T07:13:23;9.40;99.90
17331;DHT22;8783;52.448;4.638;2024-02-14T07:15:48;9.40;99.90
17331;DHT22;8783;52.448;4.638;2024-02-14T07:18:14;9.40;99.90
17331;DHT22;8783;52.448;4.638;2024-02-14T07:20:39;9.40;99.90
17331;DHT22;8783;52.448;4.638;2024-02-14T07:23:05;9.40;99.90
17331;DHT22;8783;52.448;4.638;2024-02-14T07:25:31;9.40;99.90
17331;DHT22;8783;52.448;4.638;2024-02-14T07:27:56;9.40;99.90
17331;DHT22;8783;52.448;4.638;2024-02-14T07:30:22;9.40;99.90
17331;DHT22;8783;52.448;4.638;2024-02-14T07:32:48;9.40;99.90
17331;DHT22;8783;52.448;4.638;2024-02-14T07:35:13;9.50;99.90
17331;DHT22;8783;52.448;4.638;2024-02-14T07:37:39;9.50;99.90
17331;DHT22;8783;52.448;4.638;2024-02-14T07:40:05;9.50;99.90
17331;DHT22;8783;52.448;4.638;2024-02-14T07:42:31;9.50;99.90
17331;DHT22;8783;52.448;4.638;2024-02-14T07:44:57;9.50;99.90
17331;DHT22;8783;52.448;4.638;2024-02-14T07:47:23;9.50;99.90
17331;DHT22;8783;52.448;4.638;2024-02-14T07:49:48;9.50;99.90
17331;DHT22;8783;52.448;4.638;2024-02-14T07:52:14;9.60;99.90
17331;DHT22;8783;52.448;4.638;2024-02-14T07:54:40;9.60;99.90
17331;DHT22;8783;52.448;4.638;2024-02-14T07:57:06;9.60;99.90
17331;DHT22;8783;52.448;4.638;2024-02-14T07:59:32;9.60;99.90
17331;DHT22;8783;52.448;4.638;2024-02-14T08:01:57;9.60;99.90
17331;DHT22;8783;52.448;4.638;2024-02-14T08:04:23;9.70;99.90
17331;DHT22;8783;52.448;4.638;2024-02-14T08:06:49;9.70;99.90
17331;DHT22;8783;52.448;4.638;2024-02-14T08:09:15;9.70;99.90
17331;DHT22;8783;52.448;4.638;2024-02-14T08:11:41;9.70;99.90
17331;DHT22;8783;52.448;4.638;2024-02-14T08:14:06;9.70;99.90
17331;DHT22;8783;52.448;4.638;2024-02-14T08:16:32;9.70;99.90
17331;DHT22;8783;52.448;4.638;2024-02-14T08:18:58;9.80;99.90
17331;DHT22;8783;52.448;4.638;2024-02-14T08:21:27;9.80;99.90
17331;DHT22;8783;52.448;4.638;2024-02-14T08:23:53;9.80;99.90
17331;DHT22;8783;52.448;4.638;2024-02-14T08:26:19;9.90;99.90
17331;DHT22;8783;52.448;4.638;2024-02-14T08:28:45;9.80;99.90
17331;DHT22;8783;52.448;4.638;2024-02-14T08:31:11;9.90;99.90
17331;DHT22;8783;52.448;4.638;2024-02-14T08:33:37;9.90;99.90
17331;DHT22;8783;52.448;4.638;2024-02-14T08:36:04;9.90;99.90
17331;DHT22;8783;52.448;4.638;2024-02-14T08:38:30;9.90;99.90
17331;DHT22;8783;52.448;4.638;2024-02-14T08:40:55;9.90;99.90
17331;DHT22;8783;52.448;4.638;2024-02-14T08:43:22;9.90;99.90
17331;DHT22;8783;52.448;4.638;2024-02-14T08:45:50;9.90;99.90
17331;DHT22;8783;52.448;4.638;2024-02-14T08:48:17;10.00;99.90
17331;DHT22;8783;52.448;4.638;2024-02-14T08:50:43;10.00;99.90
17331;DHT22;8783;52.448;4.638;2024-02-14T08:53:09;10.00;99.90
17331;DHT22;8783;52.448;4.638;2024-02-14T08:55:35;10.00;99.90
17331;DHT22;8783;52.448;4.638;2024-02-14T08:58:01;10.00;99.90
17331;DHT22;8783;52.448;4.638;2024-02-14T09:00:27;10.00;99.90
17331;DHT22;8783;52.448;4.638;2024-02-14T09:02:53;10.10;99.90
17331;DHT22;8783;52.448;4.638;2024-02-14T09:05:18;10.10;99.90
17331;DHT22;8783;52.448;4.638;2024-02-14T09:07:44;10.00;99.90
17331;DHT22;8783;52.448;4.638;2024-02-14T09:10:10;10.10;99.90
17331;DHT22;8783;52.448;4.638;2024-02-14T09:12:38;10.10;99.90
17331;DHT22;8783;52.448;4.638;2024-02-14T09:15:07;10.10;99.90
17331;DHT22;8783;52.448;4.638;2024-02-14T09:17:32;10.10;99.90
17331;DHT22;8783;52.448;4.638;2024-02-14T09:19:58;10.20;99.90
17331;DHT22;8783;52.448;4.638;2024-02-14T09:22:23;10.20;99.90
17331;DHT22;8783;52.448;4.638;2024-02-14T09:24:50;10.20;99.90
17331;DHT22;8783;52.448;4.638;2024-02-14T09:27:16;10.20;99.90
17331;DHT22;8783;52.448;4.638;2024-02-14T09:29:41;10.20;99.90
17331;DHT22;8783;52.448;4.638;2024-02-14T09:32:07;10.20;99.90
17331;DHT22;8783;52.448;4.638;2024-02-14T09:34:34;10.20;99.90
17331;DHT22;8783;52.448;4.638;2024-02-14T09:37:00;10.30;99.90
17331;DHT22;8783;52.448;4.638;2024-02-14T09:39:25;10.20;99.90
17331;DHT22;8783;52.448;4.638;2024-02-14T09:42:01;10.30;99.90
17331;DHT22;8783;52.448;4.638;2024-02-14T09:44:28;10.30;99.90
17331;DHT22;8783;52.448;4.638;2024-02-14T09:46:57;10.30;99.90
17331;DHT22;8783;52.448;4.638;2024-02-14T09:49:24;10.30;99.90
17331;DHT22;8783;52.448;4.638;2024-02-14T09:51:51;10.30;99.90
17331;DHT22;8783;52.448;4.638;2024-02-14T09:54:17;10.30;99.90
17331;DHT22;8783;52.448;4.638;2024-02-14T09:56:50;10.30;99.90
17331;DHT22;8783;52.448;4.638;2024-02-14T09:59:19;10.40;99.90
17331;DHT22;8783;52.448;4.638;2024-02-14T10:01:47;10.40;99.90
17331;DHT22;8783;52.448;4.638;2024-02-14T10:04:15;10.40;99.90
17331;DHT22;8783;52.448;4.638;2024-02-14T10:06:40;10.40;99.90
17331;DHT22;8783;52.448;4.638;2024-02-14T10:09:07;10.40;99.90
17331;DHT22;8783;52.448;4.638;2024-02-14T10:11:33;10.40;99.90
17331;DHT22;8783;52.448;4.638;2024-02-14T10:13:58;10.40;99.90
17331;DHT22;8783;52.448;4.638;2024-02-14T10:16:28;10.50;99.90
17331;DHT22;8783;52.448;4.638;2024-02-14T10:18:54;10.50;99.90
17331;DHT22;8783;52.448;4.638;2024-02-14T10:21:20;10.50;99.90
17331;DHT22;8783;52.448;4.638;2024-02-14T10:23:47;10.50;99.90
17331;DHT22;8783;52.448;4.638;2024-02-14T10:26:15;10.50;99.90
17331;DHT22;8783;52.448;4.638;2024-02-14T10:28:44;10.60;99.90
17331;DHT22;8783;52.448;4.638;2024-02-14T10:31:26;10.60;99.90
17331;DHT22;8783;52.448;4.638;2024-02-14T10:33:55;10.60;99.90
17331;DHT22;8783;52.448;4.638;2024-02-14T10:36:22;10.60;99.90
17331;DHT22;8783;52.448;4.638;2024-02-14T10:38:48;10.60;99.90
17331;DHT22;8783;52.448;4.638;2024-02-14T10:41:16;10.60;99.90
17331;DHT22;8783;52.448;4.638;2024-02-14T10:43:42;10.60;99.90
17331;DHT22;8783;52.448;4.638;2024-02-14T10:46:19;10.60;99.90
17331;DHT22;8783;52.448;4.638;2024-02-14T10:48:46;10.70;99.90
17331;DHT22;8783;52.448;4.638;2024-02-14T10:51:14;10.70;99.90
17331;DHT22;8783;52.448;4.638;2024-02-14T10:53:41;10.70;99.90
17331;DHT22;8783;52.448;4.638;2024-02-14T10:56:12;10.70;99.90
17331;DHT22;8783;52.448;4.638;2024-02-14T10:58:40;10.80;99.90
17331;DHT22;8783;52.448;4.638;2024-02-14T11:01:07;10.70;99.90
17331;DHT22;8783;52.448;4.638;2024-02-14T11:03:34;10.80;99.90
17331;DHT22;8783;52.448;4.638;2024-02-14T11:06:02;10.80;99.90
17331;DHT22;8783;52.448;4.638;2024-02-14T11:08:29;10.80;99.90
17331;DHT22;8783;52.448;4.638;2024-02-14T11:10:59;10.80;99.90
17331;DHT22;8783;52.448;4.638;2024-02-14T11:13:31;10.80;99.90
17331;DHT22;8783;52.448;4.638;2024-02-14T11:16:00;10.80;99.90
17331;DHT22;8783;52.448;4.638;2024-02-14T11:18:30;10.90;99.90
17331;DHT22;8783;52.448;4.638;2024-02-14T11:20:56;10.80;99.90
17331;DHT22;8783;52.448;4.638;2024-02-14T11:23:25;10.90;99.90
17331;DHT22;8783;52.448;4.638;2024-02-14T11:26:05;10.90;99.90
17331;DHT22;8783;52.448;4.638;2024-02-14T11:28:37;10.90;99.90
17331;DHT22;8783;52.448;4.638;2024-02-14T11:31:04;10.90;99.90
17331;DHT22;8783;52.448;4.638;2024-02-14T11:33:35;10.90;99.90
17331;DHT22;8783;52.448;4.638;2024-02-14T11:36:07;11.00;99.90
17331;DHT22;8783;52.448;4.638;2024-02-14T11:38:36;11.00;99.90
17331;DHT22;8783;52.448;4.638;2024-02-14T11:41:02;11.10;99.90
17331;DHT22;8783;52.448;4.638;2024-02-14T11:43:29;11.10;99.90
17331;DHT22;8783;52.448;4.638;2024-02-14T11:45:55;11.10;99.90
17331;DHT22;8783;52.448;4.638;2024-02-14T11:48:21;11.20;99.90
17331;DHT22;8783;52.448;4.638;2024-02-14T11:50:49;11.20;99.90
17331;DHT22;8783;52.448;4.638;2024-02-14T11:53:15;11.20;99.90
17331;DHT22;8783;52.448;4.638;2024-02-14T11:55:50;11.20;99.90
17331;DHT22;8783;52.448;4.638;2024-02-14T11:58:17;11.20;99.90
17331;DHT22;8783;52.448;4.638;2024-02-14T12:00:44;11.20;99.90
17331;DHT22;8783;52.448;4.638;2024-02-14T12:03:13;11.10;99.90
17331;DHT22;8783;52.448;4.638;2024-02-14T12:05:38;11.20;99.90
17331;DHT22;8783;52.448;4.638;2024-02-14T12:08:05;11.20;99.90
17331;DHT22;8783;52.448;4.638;2024-02-14T12:10:32;11.20;99.90
17331;DHT22;8783;52.448;4.638;2024-02-14T12:12:58;11.20;99.90
17331;DHT22;8783;52.448;4.638;2024-02-14T12:15:26;11.20;99.90
17331;DHT22;8783;52.448;4.638;2024-02-14T12:17:58;11.20;99.90
17331;DHT22;8783;52.448;4.638;2024-02-14T12:20:23;11.20;99.90
17331;DHT22;8783;52.448;4.638;2024-02-14T12:22:52;11.20;99.90
17331;DHT22;8783;52.448;4.638;2024-02-14T12:25:19;11.20;99.90
17331;DHT22;8783;52.448;4.638;2024-02-14T12:27:50;11.20;99.90
17331;DHT22;8783;52.448;4.638;2024-02-14T12:30:17;11.20;99.90
17331;DHT22;8783;52.448;4.638;2024-02-14T12:32:43;11.30;99.90
17331;DHT22;8783;52.448;4.638;2024-02-14T12:35:09;11.20;99.90
17331;DHT22;8783;52.448;4.638;2024-02-14T12:37:35;11.20;99.90
17331;DHT22;8783;52.448;4.638;2024-02-14T12:40:01;11.30;99.90
17331;DHT22;8783;52.448;4.638;2024-02-14T12:42:27;11.20;99.90
17331;DHT22;8783;52.448;4.638;2024-02-14T12:44:56;11.20;99.90
17331;DHT22;8783;52.448;4.638;2024-02-14T12:47:22;11.20;99.90
17331;DHT22;8783;52.448;4.638;2024-02-14T12:49:48;11.20;99.90
17331;DHT22;8783;52.448;4.638;2024-02-14T12:52:15;11.20;99.90
17331;DHT22;8783;52.448;4.638;2024-02-14T12:54:41;11.30;99.90
17331;DHT22;8783;52.448;4.638;2024-02-14T12:57:06;11.30;99.90
17331;DHT22;8783;52.448;4.638;2024-02-14T12:59:32;11.30;99.90
17331;DHT22;8783;52.448;4.638;2024-02-14T13:01:57;11.30;99.90
17331;DHT22;8783;52.448;4.638;2024-02-14T13:04:23;11.30;99.90
17331;DHT22;8783;52.448;4.638;2024-02-14T13:06:49;11.30;99.90
17331;DHT22;8783;52.448;4.638;2024-02-14T13:09:14;11.30;99.90
17331;DHT22;8783;52.448;4.638;2024-02-14T13:11:40;11.30;99.90
17331;DHT22;8783;52.448;4.638;2024-02-14T13:14:08;11.30;99.90
17331;DHT22;8783;52.448;4.638;2024-02-14T13:16:34;11.30;99.90
17331;DHT22;8783;52.448;4.638;2024-02-14T13:19:00;11.30;99.90
17331;DHT22;8783;52.448;4.638;2024-02-14T13:21:25;11.30;99.90
17331;DHT22;8783;52.448;4.638;2024-02-14T13:23:51;11.30;99.90
17331;DHT22;8783;52.448;4.638;2024-02-14T13:26:17;11.30;99.90
17331;DHT22;8783;52.448;4.638;2024-02-14T13:28:42;11.30;99.90
17331;DHT22;8783;52.448;4.638;2024-02-14T13:31:08;11.30;99.90
17331;DHT22;8783;52.448;4.638;2024-02-14T13:33:35;11.30;99.90
17331;DHT22;8783;52.448;4.638;2024-02-14T13:36:01;11.30;99.90
17331;DHT22;8783;52.448;4.638;2024-02-14T13:38:27;11.30;99.90
17331;DHT22;8783;52.448;4.638;2024-02-14T13:40:54;11.30;99.90
17331;DHT22;8783;52.448;4.638;2024-02-14T13:43:19;11.30;99.90
17331;DHT22;8783;52.448;4.638;2024-02-14T13:45:46;11.30;99.90
17331;DHT22;8783;52.448;4.638;2024-02-14T13:48:13;11.30;99.90
17331;DHT22;8783;52.448;4.638;2024-02-14T13:50:39;11.30;99.90
17331;DHT22;8783;52.448;4.638;2024-02-14T13:53:06;11.30;99.90
17331;DHT22;8783;52.448;4.638;2024-02-14T13:55:32;11.30;99.90
17331;DHT22;8783;52.448;4.638;2024-02-14T13:57:57;11.30;99.90
17331;DHT22;8783;52.448;4.638;2024-02-14T14:00:23;11.30;99.90
17331;DHT22;8783;52.448;4.638;2024-02-14T14:02:49;11.30;99.90
17331;DHT22;8783;52.448;4.638;2024-02-14T14:05:14;11.30;99.90
17331;DHT22;8783;52.448;4.638;2024-02-14T14:07:40;11.30;99.90
17331;DHT22;8783;52.448;4.638;2024-02-14T14:10:07;11.30;99.90
17331;DHT22;8783;52.448;4.638;2024-02-14T14:12:33;11.30;99.90
17331;DHT22;8783;52.448;4.638;2024-02-14T14:15:00;11.30;99.90
17331;DHT22;8783;52.448;4.638;2024-02-14T14:17:26;11.30;99.90
17331;DHT22;8783;52.448;4.638;2024-02-14T14:19:52;11.30;99.90
17331;DHT22;8783;52.448;4.638;2024-02-14T14:22:18;11.30;99.90
17331;DHT22;8783;52.448;4.638;2024-02-14T14:24:43;11.40;99.90
17331;DHT22;8783;52.448;4.638;2024-02-14T14:27:09;11.30;99.90
17331;DHT22;8783;52.448;4.638;2024-02-14T14:29:42;11.30;99.90
17331;DHT22;8783;52.448;4.638;2024-02-14T14:32:08;11.30;99.90
17331;DHT22;8783;52.448;4.638;2024-02-14T14:34:34;11.40;99.90
17331;DHT22;8783;52.448;4.638;2024-02-14T14:37:00;11.30;99.90
17331;DHT22;8783;52.448;4.638;2024-02-14T14:39:26;11.30;99.90
17331;DHT22;8783;52.448;4.638;2024-02-14T14:41:52;11.30;99.90
17331;DHT22;8783;52.448;4.638;2024-02-14T14:44:24;11.30;99.90
17331;DHT22;8783;52.448;4.638;2024-02-14T14:46:50;11.30;99.90
17331;DHT22;8783;52.448;4.638;2024-02-14T14:49:16;11.30;99.90
17331;DHT22;8783;52.448;4.638;2024-02-14T14:51:42;11.30;99.90
17331;DHT22;8783;52.448;4.638;2024-02-14T14:54:08;11.30;99.90
17331;DHT22;8783;52.448;4.638;2024-02-14T14:56:34;11.30;99.90
17331;DHT22;8783;52.448;4.638;2024-02-14T14:58:59;11.30;99.90
17331;DHT22;8783;52.448;4.638;2024-02-14T15:01:31;11.30;99.90
17331;DHT22;8783;52.448;4.638;2024-02-14T15:03:59;11.30;99.90
17331;DHT22;8783;52.448;4.638;2024-02-14T15:06:25;11.30;99.90
17331;DHT22;8783;52.448;4.638;2024-02-14T15:08:50;11.30;99.90
17331;DHT22;8783;52.448;4.638;2024-02-14T15:11:16;11.30;99.90
17331;DHT22;8783;52.448;4.638;2024-02-14T15:13:43;11.30;99.90
17331;DHT22;8783;52.448;4.638;2024-02-14T15:16:10;11.30;99.90
17331;DHT22;8783;52.448;4.638;2024-02-14T15:18:36;11.30;99.90
17331;DHT22;8783;52.448;4.638;2024-02-14T15:21:02;11.20;99.90
17331;DHT22;8783;52.448;4.638;2024-02-14T15:23:28;11.30;99.90
17331;DHT22;8783;52.448;4.638;2024-02-14T15:25:54;11.30;99.90
17331;DHT22;8783;52.448;4.638;2024-02-14T15:28:28;11.30;99.90
17331;DHT22;8783;52.448;4.638;2024-02-14T15:30:58;11.30;99.90
17331;DHT22;8783;52.448;4.638;2024-02-14T15:33:42;11.20;99.90
17331;DHT22;8783;52.448;4.638;2024-02-14T15:36:09;11.20;99.90
17331;DHT22;8783;52.448;4.638;2024-02-14T15:38:35;11.20;99.90
17331;DHT22;8783;52.448;4.638;2024-02-14T15:41:00;11.20;99.90
17331;DHT22;8783;52.448;4.638;2024-02-14T15:43:28;11.20;99.90
17331;DHT22;8783;52.448;4.638;2024-02-14T15:45:54;11.20;99.90
17331;DHT22;8783;52.448;4.638;2024-02-14T15:48:20;11.20;99.90
17331;DHT22;8783;52.448;4.638;2024-02-14T15:50:46;11.20;99.90